Latest METARs, TAFs and NOTAMs for SKCG


---------------------------------------------------------------------------
	(OBSERVATIONS)
SKCG 110700Z VRB02KT 9999 FEW017 SCT250 27/25 A2982=
SKCG 110600Z VRB02KT 9999 FEW016 SCT250 26/25 A2985=
SKCG 110500Z 07003KT 9999 FEW016 SCT250 27/25 A2986=
---------------------------------------------------------------------------
	(TERMINAL AREA FORECAST)
SKCG 110500Z 1106/1206 03006KT 9999 FEW017
    BECMG 1114/1116 32010KT
    TX32/1118Z TN25/1111Z=
---------------------------------------------------------------------------
	(NOTAMS)


SKCG A0542/17 FIRE FIGHTING AND RESCUE CHG TO CAT 8. TUE, THU,
    SAT BTN 2100-2359 WED, FRI, SUN, BTN 0000-0015, 28 MAR 21:00
    2017 UNTIL PERM. CREATED: 23 FEB 19:57 2017

SKCG A2254/17 RWY 01/19 AVBL ONLY TKOF. DLY BTN 1030-1115, 30
    SEP 10:30 2017 UNTIL 30 MAR 11:15 2018. CREATED: 16 AUG 18:58
    2017

SKCG A2997/09 FIRE FIGHTING AND RESCUE DOWNGRADED TO CAT 7 09
    DEC 20:30 UNTIL 10 DEC 23:00 ESTIMATED

SKCG A3303/17 RWY 01/19 CLSD. DLY BTN 0615-1030 EXC NOV 26 DEC
    08,23,30 BTN 0730-1030 JAN 02,03,06 BTN 0730-1030, 25 NOV
    07:40 2017 UNTIL 30 MAR 10:30 2018. CREATED: 25 NOV 07:46
    2017

SKCG A3324/17 MID AND RWY 01 TRANSMISSOMETER U/S. H24, 28 NOV
    18:30 2017 UNTIL 28 FEB 23:59 2018 ESTIMATED. CREATED: 28
    NOV 18:37 2017

SKCG A3395/17 TRIGGER NOTAM - AIRAC AIP SUP A71/17 WEF 04JAN18
    SKCG SID REF. AIP GEN 3.2?AD 2-SKCG SID5. 04 JAN 00:00 2018
    UNTIL 18 JAN 23:59 2018. CREATED: 07 DEC 05:26 2017

SKCG V0423/17 [US DOD PROCEDURAL NOTAM] INSTRUMENT APPROACH PROCEDURE
    AMENDMENT VOR RWY 01 AMEND NAME TO VOR X RWY 01, AMEND CAUTION
    NOTE: FINAL APPROACH COURSE INTERSECTS EXTENDED CENTERLINE
    6152' OUTWARD OF RWY THLD. AMEND FAF ALTITUDE TO AT OR ABOVE
    2760FT. 28 NOV 19:41 2017 UNTIL 31 MAR 23:59 2018. CREATED:
    28 NOV 19:41 2017

---------------------------------------------------------------------------